KAND/AND METAR and TAF weather

Enter ICAO airport designator
Station Type Date Time Source
KAND METAR 2022/11/26 07:56 UTC NOAA

KAND 260756Z AUTO 00000KT 10SM CLR 08/06 A3015 RMK AO2 SLP207 T00780061


Station Type Date Time Source
KAND Decoded METAR 2022/11/26 07:56 UTC NOAA

ANDERSON COUNTY AIRPORT, SC, United States (KAND) 34-30N 82-43W 239M
Nov 26, 2022 - 02:56 AM EST / 2022.11.26 0756 UTC
Wind: Calm:0
Visibility: 10 mile(s):0
Sky conditions: clear
Temperature: 46.0 F (7.8 C)
Dew Point: 43.0 F (6.1 C)
Relative Humidity: 88%
Pressure (altimeter): 30.15 in. Hg (1020 hPa)
ob: KAND 260756Z AUTO 00000KT 10SM CLR 08/06 A3015 RMK AO2 SLP207 T00780061
cycle: 8

Station Type Date Time Source
KAND TAF 2022/11/26 06:39 UTC NOAA

TAF KAND 260537Z 2606/2706 06004KT P6SM SCT250
FM261700 12005KT P6SM SCT240
FM270000 09003KT P6SM BKN090
FM270400 07004KT 6SM -RA BR OVC016

Example: see airport list